No particular awareness of the weather is required.    There are no Weather-warnings


Meteo18 Weather Cam more information Meteo18 Weather Cam


Thunder radar more information blitzortung!


Rain radar more information rain snow radar


Visit our other weather sites:

Template documentation
and downloads

And another site



Weather Underground History page Text

Daily Summary for October 9, 2017 Units:  English    Metric   Both
« Previous Day
Next Day »
Daily Weekly Monthly Yearly Custom
  High: Low: Average:
Temperature: 61.7 °F 49.8 °F 55.4 °F
Dew Point: 55.6 °F 48.9 °F 52.2 °F
Humidity: 98 % 72 % 89 %
Wind Speed: 9 mph 0 mph 1.1 mph
Wind Gust: 11 mph - -
Wind:- - SW
Pressure: 30.2 in 30.2 in -
Precipitation: 0 in    
Historical Graphs
 
 
Tabular Data for October 9, 2017
Time Temperature Dew Point Pressure Wind Wind Speed Wind Gust Humidity Rainfall Rate (Hourly)
00:02 52.5 °F 51.1 °F 30.2 in Calm     95 % 0 in
00:07 52.3 °F 50.9 °F 30.2 in Calm     95 % 0 in
00:12 52.2 °F 50.7 °F 30.2 in Calm     95 % 0 in
00:17 52.2 °F 50.7 °F 30.2 in Calm     95 % 0 in
00:22 52 °F 50.5 °F 30.2 in Calm     95 % 0 in
00:32 51.8 °F 50.4 °F 30.2 in Calm     95 % 0 in
00:37 52 °F 50.9 °F 30.2 in Calm     96 % 0 in
00:42 51.8 °F 50.4 °F 30.2 in Calm     95 % 0 in
00:47 52 °F 50.9 °F 30.2 in Calm     96 % 0 in
00:52 52 °F 50.9 °F 30.2 in Calm     96 % 0 in
00:57 52 °F 50.9 °F 30.2 in Calm     96 % 0 in
01:02 52 °F 50.9 °F 30.2 in Calm     96 % 0 in
01:07 51.8 °F 50.4 °F 30.2 in Calm     95 % 0 in
01:12 51.8 °F 50.7 °F 30.2 in Calm     96 % 0 in
01:22 51.3 °F 49.8 °F 30.2 in Calm     95 % 0 in
01:27 51.1 °F 49.6 °F 30.2 in Calm     95 % 0 in
01:32 51.1 °F 50 °F 30.2 in Calm   1 mph 96 % 0 in
01:37 50.9 °F 49.8 °F 30.2 in Calm   1 mph 96 % 0 in
01:42 50.7 °F 49.6 °F 30.2 in Calm   1 mph 96 % 0 in
01:47 50.7 °F 49.6 °F 30.2 in Calm   1 mph 96 % 0 in
01:52 50.7 °F 49.6 °F 30.2 in Calm   1 mph 96 % 0 in
01:57 50.7 °F 49.6 °F 30.2 in Calm   1 mph 96 % 0 in
02:02 50.7 °F 49.6 °F 30.2 in Calm     96 % 0 in
02:12 50.7 °F 49.6 °F 30.2 in Calm     96 % 0 in
02:17 50.9 °F 49.8 °F 30.2 in Calm   1 mph 96 % 0 in
02:22 51.1 °F 50.2 °F 30.2 in Calm   1 mph 97 % 0 in
02:27 51.1 °F 50 °F 30.2 in Calm   1 mph 96 % 0 in
02:32 50.9 °F 49.8 °F 30.2 in Calm     96 % 0 in
02:37 50.7 °F 49.6 °F 30.2 in Calm     96 % 0 in
02:42 50.5 °F 49.5 °F 30.2 in Calm     96 % 0 in
02:47 50.4 °F 49.3 °F 30.2 in Calm     96 % 0 in
02:52 50.4 °F 49.3 °F 30.2 in Calm     96 % 0 in
02:57 50.4 °F 49.3 °F 30.2 in Calm     96 % 0 in
03:07 50.4 °F 49.3 °F 30.2 in Calm     96 % 0 in
03:12 50.5 °F 49.6 °F 30.2 in Calm     97 % 0 in
03:17 50.5 °F 49.6 °F 30.2 in Calm     97 % 0 in
03:22 50.5 °F 49.5 °F 30.2 in Calm     96 % 0 in
03:27 50.5 °F 49.6 °F 30.2 in Calm     97 % 0 in
03:32 50.5 °F 49.6 °F 30.2 in Calm     97 % 0 in
03:37 50.5 °F 49.6 °F 30.2 in Calm     97 % 0 in
03:42 50.5 °F 49.6 °F 30.2 in Calm     97 % 0 in
03:52 50.7 °F 49.8 °F 30.2 in Calm     97 % 0 in
04:02 50.5 °F 49.6 °F 30.2 in Calm   1 mph 97 % 0 in
04:07 50.5 °F 49.5 °F 30.2 in Calm   1 mph 96 % 0 in
04:12 50.4 °F 49.3 °F 30.2 in Calm   1 mph 96 % 0 in
04:22 50.4 °F 49.3 °F 30.2 in Calm   1 mph 96 % 0 in
04:32 50.2 °F 49.1 °F 30.2 in Calm     96 % 0 in
04:37 50.2 °F 49.1 °F 30.2 in Calm     96 % 0 in
04:42 50.2 °F 49.3 °F 30.2 in Calm     97 % 0 in
04:47 50.2 °F 49.1 °F 30.2 in Calm     96 % 0 in
04:52 50 °F 49.1 °F 30.2 in Calm     97 % 0 in
05:02 50.2 °F 49.3 °F 30.2 in Calm     97 % 0 in
05:07 50.2 °F 49.3 °F 30.2 in Calm     97 % 0 in
05:12 50.2 °F 49.3 °F 30.2 in Calm     97 % 0 in
05:22 50.2 °F 49.3 °F 30.2 in Calm     97 % 0 in
05:27 50.4 °F 49.5 °F 30.2 in Calm     97 % 0 in
05:42 50.4 °F 49.5 °F 30.2 in Calm     97 % 0 in
05:47 50.4 °F 49.5 °F 30.2 in Calm   1 mph 97 % 0 in
05:52 50.4 °F 49.5 °F 30.2 in Calm   1 mph 97 % 0 in
05:57 50.4 °F 49.5 °F 30.2 in Calm   1 mph 97 % 0 in
06:02 50.5 °F 49.6 °F 30.2 in Calm     97 % 0 in
06:12 50.5 °F 49.6 °F 30.2 in Calm     97 % 0 in
06:17 50.5 °F 49.6 °F 30.2 in Calm     97 % 0 in
06:22 50.5 °F 49.6 °F 30.2 in Calm     97 % 0 in
06:32 50.5 °F 49.6 °F 30.2 in Calm     97 % 0 in
06:52 50.4 °F 49.5 °F 30.2 in Calm     97 % 0 in
06:57 50.4 °F 49.5 °F 30.2 in Calm     97 % 0 in
07:02 50.4 °F 49.5 °F 30.2 in Calm     97 % 0 in
07:12 50.4 °F 49.5 °F 30.2 in Calm     97 % 0 in
07:17 50.4 °F 49.5 °F 30.2 in Calm     97 % 0 in
07:22 50.4 °F 49.5 °F 30.2 in Calm     97 % 0 in
07:42 49.8 °F 48.9 °F 30.2 in Calm     97 % 0 in
07:52 49.8 °F 48.9 °F 30.2 in Calm     97 % 0 in
07:57 49.8 °F 48.9 °F 30.2 in Calm     97 % 0 in
08:02 50 °F 49.1 °F 30.2 in Calm     97 % 0 in
08:12 50.2 °F 49.3 °F 30.2 in Calm     97 % 0 in
08:17 50.4 °F 49.5 °F 30.2 in Calm     97 % 0 in
08:22 50.4 °F 49.5 °F 30.2 in Calm     97 % 0 in
08:32 50.2 °F 49.3 °F 30.2 in Calm   1 mph 97 % 0 in
08:42 50.2 °F 49.3 °F 30.2 in Calm   1 mph 97 % 0 in
08:52 49.8 °F 48.9 °F 30.2 in Calm     97 % 0 in
09:02 50.2 °F 49.3 °F 30.2 in SSE 1 mph   97 % 0 in
09:07 50 °F 49.1 °F 30.2 in Calm   1 mph 97 % 0 in
09:12 50.4 °F 49.5 °F 30.2 in Calm   1 mph 97 % 0 in
09:17 50.4 °F 49.5 °F 30.2 in Calm   1 mph 97 % 0 in
09:22 50.5 °F 49.6 °F 30.2 in Calm     97 % 0 in
09:32 52.3 °F 51.8 °F 30.2 in Calm     98 % 0 in
09:42 52.5 °F 51.6 °F 30.2 in Calm   1 mph 97 % 0 in
09:52 52.5 °F 51.6 °F 30.2 in Calm   1 mph 97 % 0 in
10:02 52.5 °F 51.6 °F 30.2 in Calm   1 mph 97 % 0 in
10:12 53.1 °F 52.2 °F 30.2 in Calm   1 mph 97 % 0 in
10:17 53.2 °F 52.3 °F 30.2 in Calm   1 mph 97 % 0 in
10:22 53.4 °F 52.5 °F 30.2 in Calm   2 mph 97 % 0 in
10:32 54.7 °F 53.8 °F 30.2 in Calm   2 mph 97 % 0 in
10:37 55 °F 54.1 °F 30.2 in SSE 2 mph 2 mph 97 % 0 in
10:42 54.9 °F 54 °F 30.2 in SSW 2 mph 2 mph 97 % 0 in
10:52 54.9 °F 53.8 °F 30.2 in SSE 1 mph 3 mph 96 % 0 in
10:57 55 °F 54 °F 30.2 in SSW 1 mph 4 mph 96 % 0 in
11:02 55 °F 53.6 °F 30.2 in SE 1 mph 4 mph 95 % 0 in
11:12 55.9 °F 54.9 °F 30.2 in Calm   4 mph 96 % 0 in
11:17 56.8 °F 55.4 °F 30.2 in SSE 1 mph 4 mph 95 % 0 in
11:22 56.8 °F 55.2 °F 30.2 in SSW 1 mph 3 mph 94 % 0 in
11:32 57.6 °F 55.2 °F 30.2 in South 2 mph 2 mph 92 % 0 in
11:42 58.1 °F 55.2 °F 30.2 in SW 2 mph 3 mph 90 % 0 in
11:52 58.6 °F 55.4 °F 30.2 in South 1 mph 3 mph 89 % 0 in
12:02 59.5 °F 55.6 °F 30.2 in South 2 mph 4 mph 87 % 0 in
12:12 59 °F 54.5 °F 30.2 in SSW 1 mph 5 mph 85 % 0 in
12:17 58.8 °F 55 °F 30.2 in Calm   5 mph 87 % 0 in
12:22 58.5 °F 54.7 °F 30.2 in Calm   5 mph 87 % 0 in
12:32 57.9 °F 54.3 °F 30.2 in SSW 1 mph 4 mph 88 % 0 in
12:37 57.9 °F 54.3 °F 30.2 in SW 1 mph 4 mph 88 % 0 in
12:42 57.6 °F 54 °F 30.2 in SW 3 mph 3 mph 88 % 0 in
12:52 57.6 °F 54.3 °F 30.2 in SSW 2 mph 4 mph 89 % 0 in
12:57 57.6 °F 54.3 °F 30.2 in SW 1 mph 4 mph 89 % 0 in
13:02 57.6 °F 54.3 °F 30.2 in SSW 3 mph 5 mph 89 % 0 in
13:12 58.1 °F 54.9 °F 30.2 in SE 2 mph 5 mph 89 % 0 in
13:17 58.3 °F 54.5 °F 30.2 in SSW 2 mph 4 mph 87 % 0 in
13:22 58.3 °F 54.5 °F 30.2 in SSW 4 mph 4 mph 87 % 0 in
13:27 58.5 °F 54.7 °F 30.2 in SW 3 mph 4 mph 87 % 0 in
13:32 58.5 °F 54.7 °F 30.2 in South 1 mph 4 mph 87 % 0 in
13:37 58.8 °F 54.7 °F 30.2 in SW 2 mph 4 mph 86 % 0 in
13:42 59 °F 54.9 °F 30.2 in SSW 4 mph 5 mph 86 % 0 in
13:47 59.4 °F 55.4 °F 30.2 in SSW 2 mph 5 mph 87 % 0 in
13:52 59.4 °F 54.5 °F 30.2 in SW 2 mph 6 mph 84 % 0 in
13:57 59.4 °F 54.5 °F 30.2 in SW 2 mph 6 mph 84 % 0 in
14:02 59.9 °F 54.7 °F 30.2 in SSW 6 mph 6 mph 83 % 0 in
14:12 60.4 °F 54.9 °F 30.2 in SW 4 mph 7 mph 82 % 0 in
14:17 60.6 °F 55.4 °F 30.2 in SW 5 mph 7 mph 83 % 0 in
14:22 61 °F 54.5 °F 30.2 in SSW 7 mph 8 mph 79 % 0 in
14:27 61.2 °F 54.7 °F 30.2 in SW 5 mph 8 mph 79 % 0 in
14:32 61.2 °F 54.9 °F 30.2 in SW 6 mph 9 mph 80 % 0 in
14:37 61.3 °F 54.1 °F 30.2 in SW 7 mph 9 mph 77 % 0 in
14:42 61.3 °F 55 °F 30.2 in South 7 mph 9 mph 80 % 0 in
14:47 61.5 °F 54.3 °F 30.2 in SW 5 mph 9 mph 77 % 0 in
14:52 61.5 °F 54.3 °F 30.2 in South 3 mph 9 mph 77 % 0 in
14:57 61.3 °F 53.8 °F 30.2 in SW 5 mph 9 mph 76 % 0 in
15:02 61.2 °F 53.2 °F 30.2 in SW 2 mph 8 mph 75 % 0 in
15:07 61.2 °F 52.9 °F 30.2 in West 2 mph 7 mph 74 % 0 in
15:12 61.2 °F 53.2 °F 30.2 in Calm   6 mph 75 % 0 in
15:17 61.3 °F 54.1 °F 30.2 in North 4 mph 5 mph 77 % 0 in
15:22 61.3 °F 53.8 °F 30.2 in NNW 3 mph 5 mph 76 % 0 in
15:27 61.2 °F 52.5 °F 30.2 in ENE 1 mph 5 mph 73 % 0 in
15:32 61.3 °F 52.7 °F 30.2 in NE 2 mph 5 mph 73 % 0 in
15:37 61.7 °F 53.8 °F 30.2 in NE 1 mph 4 mph 75 % 0 in
15:42 61.5 °F 54.3 °F 30.2 in West 2 mph 5 mph 77 % 0 in
15:47 61.2 °F 52 °F 30.2 in West 2 mph 6 mph 72 % 0 in
15:52 60.8 °F 53.6 °F 30.2 in SW 6 mph 6 mph 77 % 0 in
15:57 60.4 °F 53.2 °F 30.2 in SSE 5 mph 7 mph 77 % 0 in
16:02 60.4 °F 53.6 °F 30.2 in SSE 5 mph 11 mph 78 % 0 in
16:07 60.4 °F 53.6 °F 30.2 in SSW 1 mph 11 mph 78 % 0 in
16:12 60.4 °F 53.6 °F 30.2 in SW 3 mph 11 mph 78 % 0 in
16:22 60.4 °F 53.6 °F 30.2 in West 2 mph 5 mph 78 % 0 in
16:27 60.4 °F 53.2 °F 30.2 in WSW 1 mph 5 mph 77 % 0 in
16:32 60.4 °F 53.2 °F 30.2 in SW 9 mph 9 mph 77 % 0 in
16:37 60.3 °F 53.1 °F 30.2 in WSW 3 mph 9 mph 77 % 0 in
16:42 60.1 °F 53.2 °F 30.2 in SW 6 mph 9 mph 78 % 0 in
16:52 59.9 °F 53.8 °F 30.2 in WSW 5 mph 8 mph 80 % 0 in
16:57 59.9 °F 53.8 °F 30.2 in SW 2 mph 8 mph 80 % 0 in
17:02 59.9 °F 54.1 °F 30.2 in SW 4 mph 7 mph 81 % 0 in
17:07 60.1 °F 54.5 °F 30.2 in SW 3 mph 7 mph 82 % 0 in
17:12 60.6 °F 55 °F 30.2 in SW 3 mph 7 mph 82 % 0 in
17:17 60.6 °F 54.5 °F 30.2 in SSW 3 mph 7 mph 80 % 0 in
17:22 60.4 °F 54.5 °F 30.2 in West 1 mph 5 mph 81 % 0 in
17:27 60.4 °F 54.5 °F 30.2 in SW 1 mph 5 mph 81 % 0 in
17:32 60.4 °F 54.3 °F 30.2 in WSW 2 mph 5 mph 80 % 0 in
17:37 60.4 °F 53.6 °F 30.2 in WSW 1 mph 3 mph 78 % 0 in
17:42 60.4 °F 53.6 °F 30.2 in WSW 1 mph 3 mph 78 % 0 in
17:47 60.4 °F 54 °F 30.2 in Calm   4 mph 79 % 0 in
17:52 60.6 °F 54.1 °F 30.2 in Calm   4 mph 79 % 0 in
17:57 60.6 °F 54.1 °F 30.2 in West 2 mph 4 mph 79 % 0 in
18:02 60.6 °F 54.5 °F 30.2 in West 1 mph 4 mph 80 % 0 in
18:12 60.3 °F 53.4 °F 30.2 in West 2 mph 4 mph 78 % 0 in
18:17 60.3 °F 53.4 °F 30.2 in SW 3 mph 6 mph 78 % 0 in
18:22 60.1 °F 52.9 °F 30.2 in West 3 mph 6 mph 77 % 0 in
18:32 59.7 °F 52.9 °F 30.2 in West 3 mph 6 mph 78 % 0 in
18:42 59.5 °F 52.7 °F 30.2 in WNW 4 mph 6 mph 78 % 0 in
18:47 59.5 °F 52.7 °F 30.2 in WNW 5 mph 6 mph 78 % 0 in
18:52 59.4 °F 52.5 °F 30.2 in West 3 mph 6 mph 78 % 0 in
18:57 59.4 °F 52.9 °F 30.2 in West 3 mph 6 mph 79 % 0 in
19:02 59.4 °F 52.9 °F 30.2 in WSW 2 mph 5 mph 79 % 0 in
19:07 59.2 °F 53.1 °F 30.2 in West 1 mph 5 mph 80 % 0 in
19:12 59.2 °F 53.1 °F 30.2 in WSW 2 mph 5 mph 80 % 0 in
19:17 59.2 °F 53.4 °F 30.2 in West 1 mph 5 mph 81 % 0 in
19:22 58.8 °F 53.1 °F 30.2 in WNW 2 mph 4 mph 81 % 0 in
19:27 58.8 °F 53.4 °F 30.2 in WNW 2 mph 3 mph 82 % 0 in
19:32 58.8 °F 53.4 °F 30.2 in Calm   3 mph 82 % 0 in
19:37 58.6 °F 53.2 °F 30.2 in West 1 mph 3 mph 82 % 0 in
19:42 58.5 °F 53.2 °F 30.2 in West 1 mph 2 mph 83 % 0 in
19:47 58.5 °F 53.2 °F 30.2 in Calm   2 mph 83 % 0 in
19:52 58.3 °F 53.1 °F 30.2 in West 1 mph 2 mph 83 % 0 in
19:57 58.3 °F 53.1 °F 30.2 in West 1 mph 2 mph 83 % 0 in
20:02 58.3 °F 53.4 °F 30.2 in West 2 mph 2 mph 84 % 0 in
20:07 58.3 °F 53.4 °F 30.2 in WNW 2 mph 3 mph 84 % 0 in
20:12 58.3 °F 53.1 °F 30.2 in West 1 mph 3 mph 83 % 0 in
20:22 58.3 °F 53.1 °F 30.2 in WNW 1 mph 3 mph 83 % 0 in
20:27 58.1 °F 52.9 °F 30.2 in Calm   3 mph 83 % 0 in
20:32 58.1 °F 53.2 °F 30.2 in Calm   3 mph 84 % 0 in
20:37 57.9 °F 53.1 °F 30.2 in WNW 2 mph 2 mph 84 % 0 in
20:42 57.9 °F 53.4 °F 30.2 in WNW 1 mph 2 mph 85 % 0 in
20:47 57.7 °F 53.2 °F 30.2 in WNW 1 mph 2 mph 85 % 0 in
20:52 57.7 °F 53.2 °F 30.2 in Calm   2 mph 85 % 0 in
20:57 57.7 °F 53.2 °F 30.2 in Calm   1 mph 85 % 0 in
21:02 57.6 °F 53.1 °F 30.2 in Calm   1 mph 85 % 0 in
21:07 57.6 °F 53.1 °F 30.2 in Calm   1 mph 85 % 0 in
21:12 57.6 °F 53.1 °F 30.2 in Calm     85 % 0 in
21:17 57.4 °F 52.9 °F 30.2 in Calm     85 % 0 in
21:22 57.4 °F 52.9 °F 30.2 in Calm     85 % 0 in
21:27 57.4 °F 53.2 °F 30.2 in Calm     86 % 0 in
21:32 57.2 °F 53.4 °F 30.2 in Calm     87 % 0 in
21:37 57 °F 53.4 °F 30.2 in Calm     88 % 0 in
21:42 56.7 °F 53.4 °F 30.2 in Calm     89 % 0 in
21:47 56.5 °F 53.6 °F 30.2 in Calm     90 % 0 in
21:57 56.1 °F 53.2 °F 30.2 in Calm     90 % 0 in
22:02 56.1 °F 53.2 °F 30.2 in Calm     90 % 0 in
22:07 56.1 °F 53.6 °F 30.2 in Calm     91 % 0 in
22:12 55.9 °F 53.4 °F 30.2 in Calm     91 % 0 in
22:17 55.9 °F 53.4 °F 30.2 in Calm     91 % 0 in
22:22 55.9 °F 53.4 °F 30.2 in Calm     91 % 0 in
22:27 55.9 °F 53.4 °F 30.2 in Calm     91 % 0 in
22:32 55.8 °F 53.4 °F 30.2 in Calm     92 % 0 in
22:37 55.9 °F 53.6 °F 30.2 in Calm     92 % 0 in
22:42 55.8 °F 53.4 °F 30.2 in Calm     92 % 0 in
22:52 55.9 °F 53.4 °F 30.2 in Calm     91 % 0 in
22:57 55.8 °F 53.2 °F 30.2 in Calm     91 % 0 in
23:02 55.8 °F 53.4 °F 30.2 in Calm     92 % 0 in
23:07 55.6 °F 53.2 °F 30.2 in Calm     92 % 0 in
23:12 55.2 °F 52.9 °F 30.2 in Calm     92 % 0 in
23:17 55 °F 52.7 °F 30.2 in Calm     92 % 0 in
23:22 54.9 °F 52.5 °F 30.2 in Calm     92 % 0 in
23:27 54.9 °F 52.9 °F 30.2 in Calm     93 % 0 in
23:37 54.7 °F 52.7 °F 30.2 in Calm   2 mph 93 % 0 in
23:42 54.5 °F 52.5 °F 30.2 in Calm   2 mph 93 % 0 in
23:47 54.3 °F 52.3 °F 30.2 in Calm   1 mph 93 % 0 in
23:52 54.1 °F 52.2 °F 30.2 in Calm   1 mph 93 % 0 in
23:57 54 °F 52.3 °F 30.2 in Calm     94 % 0 in
Meteo18
Compliments of Weather Underground - 4 mb

Script developed by  Jim McMurry - jmcmurry@mwt.net Adapted for the template by  Wim van der Kuil - Leuven-Template.eu

You find our weather info also at:

European Weather Network

Weather Underground

Equipment we use:

Weather-station
Davis Vue

Weather-program
Meteohub

Weather-server
Raspberry PI 2 B+

Provider
1 and 1

Davis Vue

Meteohub

Raspberry PI 2 B+

1 and 1